createdAt,value
2023-03-20T00:00:02.946Z,94.56
2023-03-20T00:02:37.309Z,94.66
2023-03-20T00:05:22.428Z,94.46
2023-03-20T00:07:55.296Z,93.88
2023-03-20T00:10:38.748Z,94.16
2023-03-20T00:13:09.724Z,93.93
2023-03-20T00:16:11.111Z,94.55
2023-03-20T00:19:09.074Z,94.03
2023-03-20T00:21:48.856Z,94.02
2023-03-20T00:24:19.932Z,94.78
2023-03-20T00:26:59.363Z,94.46
2023-03-20T00:29:36.478Z,94.44
2023-03-20T00:32:11.210Z,94.79
2023-03-20T00:34:41.274Z,95.09
2023-03-20T00:37:20.318Z,95.18
2023-03-20T00:39:50.316Z,94.98
2023-03-20T00:42:29.171Z,94.43
2023-03-20T00:45:03.470Z,94.11
2023-03-20T00:47:33.929Z,94.23
2023-03-20T00:50:21.422Z,94.50
2023-03-20T00:53:04.099Z,93.83
2023-03-20T00:55:33.173Z,94.09
2023-03-20T00:58:20.734Z,93.73
2023-03-20T01:03:50.223Z,94.44
2023-03-20T01:09:26.775Z,93.43
2023-03-20T01:11:58.904Z,94.47
2023-03-20T01:14:34.300Z,94.56
2023-03-20T01:17:03.012Z,94.87
2023-03-20T01:19:40.686Z,95.52
2023-03-20T01:25:17.646Z,94.87
2023-03-20T01:31:00.793Z,94.95
2023-03-20T01:33:36.756Z,95.03
2023-03-20T01:36:22.188Z,94.97
2023-03-20T01:39:03.204Z,94.92
2023-03-20T01:41:34.935Z,95.01
2023-03-20T01:44:18.348Z,95.61
2023-03-20T01:50:22.525Z,96.05
2023-03-20T01:55:56.994Z,96.59
2023-03-20T01:58:46.656Z,96.13
2023-03-20T02:01:34.661Z,96.87
2023-03-20T02:04:27.583Z,97.04
2023-03-20T02:07:29.757Z,96.33
2023-03-20T02:10:23.987Z,97.02
2023-03-20T02:15:37.049Z,96.29
2023-03-20T02:18:06.497Z,96.59
2023-03-20T02:21:10.575Z,96.71
2023-03-20T02:24:10.427Z,96.99
2023-03-20T02:27:30.499Z,97.02
2023-03-20T02:30:58.264Z,97.00
2023-03-20T02:34:15.298Z,97.59
2023-03-20T02:37:09.536Z,97.79
2023-03-20T02:39:55.414Z,97.64
2023-03-20T02:43:01.612Z,97.37
2023-03-20T02:45:34.861Z,97.66
2023-03-20T02:49:11.645Z,97.07
2023-03-20T02:51:20.325Z,97.00
2023-03-20T02:54:27.075Z,96.47
2023-03-20T02:57:28.833Z,96.86
2023-03-20T03:00:39.121Z,97.03
2023-03-20T03:03:39.261Z,97.20
2023-03-20T03:06:51.733Z,97.64
2023-03-20T03:09:41.417Z,97.50
2023-03-20T03:12:25.760Z,97.41
2023-03-20T03:15:10.836Z,97.65
2023-03-20T03:17:41.498Z,97.93
2023-03-20T03:20:49.413Z,97.83
2023-03-20T03:23:46.590Z,97.22
2023-03-20T03:26:32.836Z,97.62
2023-03-20T03:29:39.670Z,97.71
2023-03-20T03:32:45.790Z,97.50
2023-03-20T03:35:32.173Z,97.86
2023-03-20T03:41:08.274Z,97.80
2023-03-20T03:44:08.071Z,97.81
2023-03-20T03:47:03.222Z,97.83
2023-03-20T03:50:02.357Z,97.96
2023-03-20T03:52:33.787Z,98.08
2023-03-20T03:55:08.866Z,98.22
2023-03-20T03:58:05.299Z,98.20
2023-03-20T04:00:34.224Z,98.26
2023-03-20T04:03:01.565Z,98.04
2023-03-20T04:05:49.421Z,97.69
2023-03-20T04:08:17.295Z,98.25
2023-03-20T04:10:51.751Z,98.32
2023-03-20T04:13:19.123Z,98.13
2023-03-20T04:15:47.272Z,97.81
2023-03-20T04:18:22.157Z,98.50
2023-03-20T04:20:49.455Z,97.88
2023-03-20T04:23:16.394Z,98.07
2023-03-20T04:25:45.455Z,97.96
2023-03-20T04:28:12.559Z,97.73
2023-03-20T04:30:39.952Z,98.25
2023-03-20T04:33:07.418Z,97.64
2023-03-20T04:35:35.465Z,97.81
2023-03-20T04:38:03.108Z,97.58
2023-03-20T04:40:31.877Z,97.36
2023-03-20T04:42:59.200Z,98.20
2023-03-20T04:45:30.301Z,98.49
2023-03-20T04:48:01.827Z,98.13
2023-03-20T04:50:31.664Z,97.64
2023-03-20T04:52:59.749Z,98.29
2023-03-20T04:55:27.641Z,98.32
2023-03-20T04:57:55.728Z,97.76
2023-03-20T05:00:23.120Z,98.05
2023-03-20T05:02:53.514Z,97.38
2023-03-20T05:05:21.275Z,97.74
2023-03-20T05:07:48.891Z,97.28
2023-03-20T05:10:16.860Z,96.97
2023-03-20T05:12:44.310Z,96.98
2023-03-20T05:15:12.891Z,96.30
2023-03-20T05:17:39.811Z,95.89
2023-03-20T05:20:08.146Z,96.23
2023-03-20T05:22:35.328Z,95.88
2023-03-20T05:25:41.925Z,96.05
2023-03-20T05:28:10.427Z,95.79
2023-03-20T05:30:44.324Z,95.86
2023-03-20T05:33:16.325Z,95.38
2023-03-20T05:35:43.734Z,95.98
2023-03-20T05:38:11.461Z,95.61
2023-03-20T05:40:44.864Z,94.34
2023-03-20T05:43:27.888Z,94.75
2023-03-20T05:45:57.799Z,95.53
2023-03-20T05:48:25.890Z,96.60
2023-03-20T05:50:53.306Z,95.33
2023-03-20T05:53:20.550Z,95.35
2023-03-20T05:55:48.960Z,95.48
2023-03-20T05:58:24.847Z,95.82
2023-03-20T06:00:51.884Z,96.68
2023-03-20T06:03:19.227Z,97.11
2023-03-20T06:05:47.710Z,95.92
2023-03-20T06:08:18.748Z,95.10
2023-03-20T06:10:57.017Z,92.46
2023-03-20T06:13:25.322Z,92.63
2023-03-20T06:15:53.664Z,90.43
2023-03-20T06:18:30.842Z,89.35
2023-03-20T06:21:03.244Z,88.64
2023-03-20T06:23:29.989Z,87.78
2023-03-20T06:25:57.270Z,85.92
2023-03-20T06:28:25.954Z,84.62
2023-03-20T06:30:56.818Z,84.02
2023-03-20T06:33:24.824Z,81.15
2023-03-20T06:35:57.013Z,79.56
2023-03-20T06:38:26.396Z,76.41
2023-03-20T06:40:53.333Z,74.14
2023-03-20T06:43:26.844Z,73.93
2023-03-20T06:45:54.606Z,75.89
2023-03-20T06:48:25.033Z,69.60
2023-03-20T06:50:53.472Z,67.85
2023-03-20T06:53:21.321Z,66.68
2023-03-20T06:55:50.650Z,65.58
2023-03-20T06:58:18.083Z,65.11
2023-03-20T07:00:47.087Z,65.86
2023-03-20T07:03:14.302Z,64.88
2023-03-20T07:05:41.141Z,62.50
2023-03-20T07:08:09.209Z,61.38
2023-03-20T07:10:39.308Z,59.01
2023-03-20T07:13:06.114Z,59.78
2023-03-20T07:15:36.979Z,57.60
2023-03-20T07:18:04.452Z,56.52
2023-03-20T07:20:32.414Z,54.66
2023-03-20T07:23:00.647Z,53.35
2023-03-20T07:25:41.452Z,52.65
2023-03-20T07:28:10.499Z,52.87
2023-03-20T07:30:42.327Z,53.46
2023-03-20T07:33:11.251Z,53.20
2023-03-20T07:35:39.938Z,52.69
2023-03-20T07:38:08.684Z,50.69
2023-03-20T07:40:36.237Z,51.04
2023-03-20T07:43:03.567Z,50.00
2023-03-20T07:45:31.505Z,49.70
2023-03-20T07:48:00.224Z,48.64
2023-03-20T07:50:27.702Z,48.55
2023-03-20T07:52:55.401Z,46.84
2023-03-20T07:55:26.051Z,46.55
2023-03-20T07:57:53.683Z,45.16
2023-03-20T08:00:22.093Z,44.90
2023-03-20T08:02:49.812Z,45.26
2023-03-20T08:05:17.858Z,43.82
2023-03-20T08:07:46.132Z,44.37
2023-03-20T08:10:13.708Z,42.26
2023-03-20T08:12:41.260Z,42.64
2023-03-20T08:15:09.962Z,42.18
2023-03-20T08:17:38.057Z,41.34
2023-03-20T08:20:05.323Z,41.07
2023-03-20T08:22:32.620Z,40.93
2023-03-20T08:25:06.791Z,41.24
2023-03-20T08:27:40.061Z,42.07
2023-03-20T08:30:09.108Z,40.81
2023-03-20T08:32:36.934Z,43.07
2023-03-20T08:35:22.081Z,41.20
2023-03-20T08:37:57.241Z,41.33
2023-03-20T08:40:25.440Z,40.47
2023-03-20T08:42:52.515Z,42.10
2023-03-20T08:45:19.472Z,42.14
2023-03-20T08:47:50.689Z,42.97
2023-03-20T08:50:20.168Z,42.88
2023-03-20T08:52:47.298Z,41.89
2023-03-20T08:55:15.896Z,42.25
2023-03-20T08:57:43.892Z,42.44
2023-03-20T09:00:15.017Z,41.88
2023-03-20T09:02:44.778Z,40.37
2023-03-20T09:05:16.728Z,39.91
2023-03-20T09:07:44.223Z,40.55
2023-03-20T09:10:13.084Z,40.10
2023-03-20T09:12:40.365Z,38.38
2023-03-20T09:15:08.854Z,38.06
2023-03-20T09:17:39.212Z,38.14
2023-03-20T09:20:07.696Z,36.97
2023-03-20T09:22:45.733Z,36.16
2023-03-20T09:25:13.948Z,35.70
2023-03-20T09:27:41.381Z,35.32
2023-03-20T09:30:09.432Z,36.50
2023-03-20T09:32:37.697Z,36.68
2023-03-20T09:35:06.372Z,35.94
2023-03-20T09:37:33.376Z,35.71
2023-03-20T09:40:00.626Z,34.60
2023-03-20T09:42:48.414Z,34.71
2023-03-20T09:45:51.922Z,34.78
2023-03-20T09:48:59.463Z,31.95
2023-03-20T09:51:37.692Z,30.97
2023-03-20T09:54:47.096Z,30.46
2023-03-20T09:57:24.592Z,29.53
2023-03-20T09:59:58.426Z,29.38
2023-03-20T10:02:52.152Z,27.92
2023-03-20T10:05:35.106Z,27.10
2023-03-20T10:08:05.116Z,27.92
2023-03-20T10:10:52.980Z,29.94
2023-03-20T10:13:37.925Z,29.85
2023-03-20T10:16:25.923Z,28.54
2023-03-20T10:19:16.231Z,27.50
2023-03-20T10:21:46.134Z,27.95
2023-03-20T10:24:26.125Z,28.04
2023-03-20T10:26:56.516Z,25.71
2023-03-20T10:29:36.977Z,25.81
2023-03-20T10:32:28.703Z,25.24
2023-03-20T10:35:23.289Z,26.17
2023-03-20T10:38:08.610Z,26.56
2023-03-20T10:40:38.888Z,25.33
2023-03-20T10:43:21.665Z,25.83
2023-03-20T10:45:59.700Z,25.65
2023-03-20T10:48:32.233Z,25.61
2023-03-20T10:51:02.711Z,24.85
2023-03-20T10:53:33.614Z,25.76
2023-03-20T10:56:13.375Z,25.66
2023-03-20T10:58:46.406Z,25.97
2023-03-20T11:01:21.199Z,25.18
2023-03-20T11:03:52.496Z,25.20
2023-03-20T11:06:29.740Z,24.46
2023-03-20T11:08:58.998Z,24.61
2023-03-20T11:11:29.196Z,24.22
2023-03-20T11:13:57.641Z,24.88
2023-03-20T11:16:32.376Z,24.31
2023-03-20T11:19:09.913Z,24.25
2023-03-20T11:21:45.192Z,24.09
2023-03-20T11:24:38.929Z,24.26
2023-03-20T11:27:19.735Z,25.39
2023-03-20T11:29:50.678Z,25.14
2023-03-20T11:32:27.649Z,25.26
2023-03-20T11:34:59.507Z,24.45
2023-03-20T11:37:35.005Z,23.79
2023-03-20T11:40:34.756Z,24.70
2023-03-20T11:43:02.542Z,24.36
2023-03-20T11:45:43.543Z,24.17
2023-03-20T11:48:21.225Z,24.70
2023-03-20T11:51:06.241Z,26.42
2023-03-20T11:54:02.664Z,25.41
2023-03-20T11:56:33.380Z,25.49
2023-03-20T11:59:09.633Z,24.77
2023-03-20T12:01:55.099Z,25.66
2023-03-20T12:04:37.950Z,25.38
2023-03-20T12:07:05.231Z,25.09
2023-03-20T12:09:38.825Z,25.15
2023-03-20T12:12:24.543Z,25.41
2023-03-20T12:15:08.677Z,25.66
2023-03-20T12:17:45.080Z,26.42
2023-03-20T12:20:49.784Z,25.11
2023-03-20T12:23:41.358Z,25.51
2023-03-20T12:26:14.720Z,25.49
2023-03-20T12:28:53.319Z,26.18
2023-03-20T12:31:55.725Z,27.24
2023-03-20T12:34:44.597Z,26.97
2023-03-20T12:37:13.831Z,27.20
2023-03-20T12:39:54.084Z,26.89
2023-03-20T12:42:51.467Z,27.97
2023-03-20T12:45:26.745Z,28.11
2023-03-20T12:48:05.367Z,27.56
2023-03-20T12:50:54.526Z,28.63
2023-03-20T12:53:40.754Z,30.01
2023-03-20T12:56:32.335Z,30.48
2023-03-20T12:59:20.161Z,30.43
2023-03-20T13:02:12.799Z,29.05
2023-03-20T13:04:49.265Z,29.27
2023-03-20T13:07:22.709Z,30.27
2023-03-20T13:10:05.333Z,31.16
2023-03-20T13:13:06.770Z,31.86
2023-03-20T13:15:52.895Z,32.27
2023-03-20T13:18:37.822Z,32.59
2023-03-20T13:21:11.954Z,32.44
2023-03-20T13:23:57.418Z,34.09
2023-03-20T13:26:47.581Z,31.72
2023-03-20T13:29:41.977Z,32.54
2023-03-20T13:32:12.719Z,33.89
2023-03-20T13:35:14.041Z,32.97
2023-03-20T13:38:04.159Z,33.64
2023-03-20T13:40:39.265Z,32.91
2023-03-20T13:43:41.491Z,32.46
2023-03-20T13:46:17.822Z,32.61
2023-03-20T13:48:47.017Z,32.68
2023-03-20T13:51:43.004Z,33.82
2023-03-20T13:54:43.807Z,34.94
2023-03-20T13:57:11.745Z,35.03
2023-03-20T14:00:13.672Z,34.28
2023-03-20T14:03:03.435Z,34.37
2023-03-20T14:05:36.759Z,34.45
2023-03-20T14:08:28.090Z,34.24
2023-03-20T14:11:11.362Z,34.37
2023-03-20T14:13:39.104Z,34.47
2023-03-20T14:16:14.416Z,35.03
2023-03-20T14:18:45.033Z,33.95
2023-03-20T14:21:18.793Z,33.46
2023-03-20T14:23:52.169Z,34.11
2023-03-20T14:26:24.867Z,34.28
2023-03-20T14:29:03.978Z,34.12
2023-03-20T14:31:34.992Z,34.23
2023-03-20T14:34:18.009Z,33.82
2023-03-20T14:37:03.800Z,33.60
2023-03-20T14:39:37.452Z,33.04
2023-03-20T14:42:42.357Z,33.08
2023-03-20T14:45:37.636Z,33.27
2023-03-20T14:48:12.253Z,33.69
2023-03-20T14:51:19.034Z,33.65
2023-03-20T14:53:57.165Z,32.75
2023-03-20T14:56:34.503Z,32.62
2023-03-20T14:59:12.907Z,33.57
2023-03-20T15:01:39.966Z,32.36
2023-03-20T15:04:42.103Z,32.57
2023-03-20T15:07:21.973Z,32.16
2023-03-20T15:09:53.861Z,32.62
2023-03-20T15:12:28.006Z,33.13
2023-03-20T15:15:04.046Z,32.31
2023-03-20T15:17:47.519Z,32.56
2023-03-20T15:20:21.301Z,33.06
2023-03-20T15:22:50.768Z,33.54
2023-03-20T15:25:20.375Z,32.06
2023-03-20T15:27:48.281Z,32.53
2023-03-20T15:30:18.366Z,32.72
2023-03-20T15:32:46.879Z,33.28
2023-03-20T15:35:18.504Z,33.34
2023-03-20T15:37:51.265Z,34.24
2023-03-20T15:40:37.185Z,34.42
2023-03-20T15:43:24.732Z,35.42
2023-03-20T15:46:16.273Z,36.10
2023-03-20T15:48:50.204Z,36.69
2023-03-20T15:51:19.522Z,36.31
2023-03-20T15:53:49.546Z,36.48
2023-03-20T15:56:20.128Z,36.93
2023-03-20T15:58:52.758Z,37.86
2023-03-20T16:01:22.843Z,39.74
2023-03-20T16:03:51.731Z,38.38
2023-03-20T16:06:25.091Z,38.26
2023-03-20T16:09:09.804Z,38.98
2023-03-20T16:11:42.943Z,40.80
2023-03-20T16:14:23.264Z,40.82
2023-03-20T16:16:53.994Z,41.09
2023-03-20T16:19:22.420Z,42.09
2023-03-20T16:22:09.744Z,44.16
2023-03-20T16:24:40.241Z,44.14
2023-03-20T16:27:11.893Z,45.58
2023-03-20T16:29:44.169Z,46.48
2023-03-20T16:32:34.222Z,47.68
2023-03-20T16:35:05.931Z,48.58
2023-03-20T16:37:43.627Z,49.39
2023-03-20T16:40:21.887Z,50.62
2023-03-20T16:43:17.636Z,51.40
2023-03-20T16:49:54.546Z,53.29
2023-03-20T16:52:31.750Z,54.62
2023-03-20T16:55:01.348Z,55.51
2023-03-20T16:57:39.454Z,56.05
2023-03-20T17:00:21.465Z,57.23
2023-03-20T17:03:00.841Z,58.01
2023-03-20T17:05:42.350Z,57.76
2023-03-20T17:08:24.033Z,58.20
2023-03-20T17:10:57.529Z,59.40
2023-03-20T17:13:25.327Z,59.57
2023-03-20T17:15:56.498Z,59.35
2023-03-20T17:18:25.141Z,59.47
2023-03-20T17:21:26.268Z,60.67
2023-03-20T17:23:44.828Z,61.02
2023-03-20T17:26:16.585Z,62.41
2023-03-20T17:28:46.077Z,62.41
2023-03-20T17:31:23.185Z,63.44
2023-03-20T17:34:01.544Z,63.38
2023-03-20T17:36:36.633Z,63.29
2023-03-20T17:39:07.670Z,64.20
2023-03-20T17:41:56.682Z,65.13
2023-03-20T17:44:57.752Z,64.69
2023-03-20T17:47:54.937Z,65.65
2023-03-20T17:50:27.839Z,65.93
2023-03-20T17:56:17.131Z,67.04
2023-03-20T17:59:05.363Z,67.31
2023-03-20T18:01:37.397Z,67.57
2023-03-20T18:05:43.692Z,67.33
2023-03-20T18:08:02.132Z,68.06
2023-03-20T18:13:22.166Z,67.66
2023-03-20T18:16:38.886Z,68.44
2023-03-20T18:19:57.811Z,68.88
2023-03-20T18:23:22.380Z,69.49
2023-03-20T18:26:14.614Z,70.35
2023-03-20T18:28:41.606Z,70.45
2023-03-20T18:35:16.228Z,71.42
2023-03-20T18:37:53.751Z,71.78
2023-03-20T18:41:03.885Z,71.98
2023-03-20T18:43:36.665Z,71.79
2023-03-20T18:46:03.854Z,72.37
2023-03-20T18:48:46.274Z,72.54
2023-03-20T18:51:40.241Z,72.42
2023-03-20T18:54:13.892Z,73.31
2023-03-20T18:57:06.317Z,73.01
2023-03-20T18:59:40.403Z,73.94
2023-03-20T19:05:33.328Z,73.86
2023-03-20T19:09:01.658Z,74.34
2023-03-20T19:11:28.438Z,74.58
2023-03-20T19:13:55.765Z,75.33
2023-03-20T19:17:04.293Z,75.22
2023-03-20T19:20:29.186Z,74.94
2023-03-20T19:23:09.456Z,75.43
2023-03-20T19:25:56.289Z,75.54
2023-03-20T19:32:03.477Z,76.84
2023-03-20T19:35:38.537Z,76.86
2023-03-20T19:37:41.442Z,76.29
2023-03-20T19:41:02.450Z,76.16
2023-03-20T19:44:01.476Z,76.38
2023-03-20T19:47:09.581Z,76.66
2023-03-20T19:56:19.500Z,77.23
2023-03-20T20:01:52.283Z,77.33
2023-03-20T20:04:37.067Z,77.61
2023-03-20T20:07:57.725Z,78.41
2023-03-20T20:11:34.031Z,79.04
2023-03-20T20:26:49.388Z,79.70
2023-03-20T20:29:44.260Z,79.26
2023-03-20T20:37:56.429Z,80.35
2023-03-20T20:40:00.520Z,80.66
2023-03-20T20:42:35.006Z,80.31
2023-03-20T20:45:17.143Z,81.31
2023-03-20T20:48:13.158Z,80.29
2023-03-20T20:57:11.887Z,81.28
2023-03-20T21:00:06.067Z,81.49
2023-03-20T21:02:53.057Z,81.73
2023-03-20T21:06:02.621Z,81.48
2023-03-20T21:08:32.646Z,82.78
2023-03-20T21:11:52.138Z,82.05
2023-03-20T21:24:43.689Z,82.44
2023-03-20T21:48:31.630Z,84.00
2023-03-20T21:57:11.038Z,83.34
2023-03-20T22:00:40.074Z,83.88
2023-03-20T22:02:58.941Z,84.00
2023-03-20T22:16:27.069Z,84.12
2023-03-20T22:19:34.256Z,85.88
2023-03-20T22:28:24.365Z,86.41
2023-03-20T22:34:39.482Z,86.41
2023-03-20T22:42:55.824Z,87.08
2023-03-20T22:46:07.587Z,88.21
2023-03-20T22:48:42.665Z,87.41
2023-03-20T22:52:07.905Z,87.18
2023-03-20T22:55:03.823Z,86.73
2023-03-20T22:57:42.357Z,88.11
2023-03-20T23:00:35.105Z,88.59
2023-03-20T23:03:17.526Z,88.34
2023-03-20T23:08:50.795Z,88.28
2023-03-20T23:14:54.104Z,87.44
2023-03-20T23:17:26.582Z,87.97
2023-03-20T23:20:29.360Z,88.25
2023-03-20T23:23:13.893Z,88.49
2023-03-20T23:25:46.016Z,88.15
2023-03-20T23:28:24.128Z,87.43
2023-03-20T23:34:28.849Z,87.30
2023-03-20T23:42:43.644Z,87.96
2023-03-20T23:45:22.065Z,88.52
2023-03-20T23:48:05.755Z,87.56
2023-03-20T23:50:49.740Z,87.90
2023-03-20T23:56:21.841Z,88.49
2023-03-20T23:58:59.620Z,87.84
